Decoded Metar for KMLF (MILFORD in UT, USA) (IATA:MLF) | Meteo·Mobile Aviation Weather
aviador You're here:

KMLF Decoded Metar

MILFORD in UT, USA
Report Time2019-02-18 09:52:00
UTC Time2019-02-18 10:28:53
Flight Rules mvfr MVFR
Wind010° at 10 kt
W.Decomp.*RWY 34: 9.7 kt HW 2.6 kt RCW
W.Rank010° ranks 6
Current wind is below 010° avg. (10.1)
Visibility9999 m
Phenomena:N/A
Clouds:Broken 012 Hf
Expected CloudBase > 800 ft AGL from Temp-Dew spread
Ceiling1,200 ft
Temp-6°C (ISA -11)
Dew Point-8°C (86% RH)
AAT-12.5°C
QNH1010 hPa
Density Alt3,852 ft
Elevation5,033 ft
Report Wrong Elevation
Raw Report
KMLF 180952Z AUTO 01010KT 10SM BKN012 M06/M08 A2983 RMK AO2 SLP125
I1000 T10611078=

Extra information for KMLF:More info

Metar Taf Metar & Taf Last 4 Metars F.Rules Stats Wind Profile Meteogram Temp Stats Airport Information Weather charts Add Link Nearby VenuesMetar ALERT Operation Metar Decoded Social comments

AIRNAV info for KMLF